Time,TemperatureF,DewpointF,PressureIn,WindDirection,WindDirectionDegrees,WindSpeedMPH,WindSpeedGustMPH,Humidity,HourlyPrecipIn,Conditions,Clouds,dailyrainin,SoftwareType,DateUTC
2013-08-18 00:01:00,64.0,55.0,29.86,North,0,0.0,-999.0,72,-99.99,,,-99.99,,2013-08-18 07:01:00,
2013-08-18 00:21:00,64.0,61.0,29.86,North,0,0.0,-999.0,88,-99.99,,,-99.99,,2013-08-18 07:21:00,
2013-08-18 01:21:00,63.0,63.0,29.86,North,0,0.0,-999.0,100,-99.99,,,-99.99,,2013-08-18 08:21:00,
2013-08-18 01:41:00,63.0,63.0,29.85,North,0,0.0,-999.0,100,-99.99,,,-99.99,,2013-08-18 08:41:00,
2013-08-18 02:21:00,61.0,61.0,29.84,North,0,0.0,-999.0,100,-99.99,,,-99.99,,2013-08-18 09:21:00,
2013-08-18 06:21:00,57.0,54.0,29.85,North,0,0.0,-999.0,87,-99.99,,,-99.99,,2013-08-18 13:21:00,
2013-08-18 06:42:00,57.0,57.0,29.86,North,0,0.0,-999.0,100,-99.99,,,-99.99,,2013-08-18 13:42:00,
2013-08-18 07:21:00,57.0,57.0,29.87,North,0,0.0,-999.0,100,-99.99,,,-99.99,,2013-08-18 14:21:00,
2013-08-18 07:42:00,57.0,57.0,29.87,North,0,0.0,-999.0,100,-99.99,,,-99.99,,2013-08-18 14:42:00,
2013-08-18 08:22:00,61.0,59.0,29.87,North,0,0.0,-999.0,93,-99.99,,,-99.99,,2013-08-18 15:22:00,
2013-08-18 12:41:00,86.0,66.0,29.84,SE,140,6.0,-999.0,51,-99.99,,,-99.99,,2013-08-18 19:41:00,
2013-08-18 13:22:00,90.0,64.0,29.84,ESE,120,7.0,-999.0,43,-99.99,,,-99.99,,2013-08-18 20:22:00,
2013-08-18 13:42:00,90.0,63.0,29.83,ESE,110,7.0,-999.0,40,-99.99,,,-99.99,,2013-08-18 20:42:00,
2013-08-18 14:21:00,93.0,66.0,29.81,ESE,120,9.0,-999.0,41,-99.99,,,-99.99,,2013-08-18 21:21:00,
2013-08-18 14:42:00,93.0,66.0,29.81,ESE,110,10.0,17.0,41,-99.99,,,-99.99,,2013-08-18 21:42:00,
2013-08-18 15:23:00,95.0,66.0,29.79,ESE,110,14.0,20.0,38,-99.99,,,-99.99,,2013-08-18 22:23:00,
2013-08-18 15:42:00,95.0,66.0,29.79,ESE,120,15.0,21.0,38,-99.99,,,-99.99,,2013-08-18 22:42:00,
2013-08-18 16:22:00,93.0,63.0,29.77,ESE,120,18.0,23.0,36,-99.99,,,-99.99,,2013-08-18 23:22:00,
2013-08-18 16:42:00,95.0,63.0,29.77,ESE,110,13.0,23.0,34,-99.99,,,-99.99,,2013-08-18 23:42:00,
2013-08-18 17:21:00,97.0,63.0,29.76,SE,130,13.0,20.0,32,-99.99,,,-99.99,,2013-08-19 00:21:00,
2013-08-18 17:42:00,95.0,63.0,29.76,ESE,110,8.0,-999.0,34,-99.99,,,-99.99,,2013-08-19 00:42:00,
2013-08-18 18:22:00,95.0,63.0,29.76,ESE,120,7.0,-999.0,34,-99.99,,,-99.99,,2013-08-19 01:22:00,
2013-08-18 18:41:00,95.0,63.0,29.75,ESE,120,6.0,-999.0,34,-99.99,,,-99.99,,2013-08-19 01:41:00,
2013-08-18 19:11:00,93.0,63.0,29.75,North,0,0.0,-999.0,36,-99.99,,,-99.99,,2013-08-19 02:11:00,
2013-08-18 19:21:00,93.0,63.0,29.75,North,0,0.0,-999.0,36,-99.99,,,-99.99,,2013-08-19 02:21:00,
2013-08-18 19:42:00,91.0,63.0,29.75,ESE,120,6.0,-999.0,38,-99.99,,,-99.99,,2013-08-19 02:42:00,
2013-08-18 20:21:00,86.0,64.0,29.76,North,0,0.0,-999.0,48,-99.99,,,-99.99,,2013-08-19 03:21:00,
2013-08-18 20:42:00,84.0,63.0,29.77,North,0,0.0,-999.0,48,-99.99,,,-99.99,,2013-08-19 03:42:00,
2013-08-18 21:12:00,82.0,63.0,29.77,North,0,0.0,-999.0,51,-99.99,,,-99.99,,2013-08-19 04:12:00,
2013-08-18 21:23:00,82.0,63.0,29.77,North,0,0.0,-999.0,51,-99.99,,,-99.99,,2013-08-19 04:23:00,
2013-08-18 21:42:00,79.0,63.0,29.79,North,0,0.0,-999.0,57,-99.99,,,-99.99,,2013-08-19 04:42:00,
2013-08-18 22:22:00,75.0,63.0,29.79,North,0,0.0,-999.0,64,-99.99,,,-99.99,,2013-08-19 05:22:00,
2013-08-18 22:42:00,75.0,63.0,29.79,North,0,0.0,-999.0,64,-99.99,,,-99.99,,2013-08-19 05:42:00,
2013-08-18 23:21:00,73.0,63.0,29.79,North,0,0.0,-999.0,68,-99.99,,,-99.99,,2013-08-19 06:21:00,
2013-08-18 23:42:00,72.0,64.0,29.79,North,0,0.0,-999.0,78,-99.99,,,-99.99,,2013-08-19 06:42:00,